London, Ohio
Current Conditions -  °F | °C
As of 7:15 AM on Monday 24 Nov 2014 (Local Time) from KUYF Reporting Station
Overcast Overcast  
Wind Chill: 55°   Ceiling: 2400
Heat Index: 55°   Visibility: 10mi
Dew Point: 52°   Wind: 18mph
Humidity: 88%   Direction: 190°S
Pressure: 29.31"   Gusts: 28mph
Location:  39.89°N, 83.45°W
Report Text: KUYF 241215Z AUTO 19016G24KT 10SM BKN024 OVC030 13/11 A2931 RMK AO2
Loading
Personal Weather Stations






























Interactive Weather Map New forecast layout! Learn more

10-Day Weather Forecast

Advertisements
Track Severe Weather on mobile